createdAt,value
2018-12-27T00:02:11.797Z,1.10
2018-12-27T00:04:41.194Z,1.37
2018-12-27T00:07:10.567Z,1.60
2018-12-27T00:09:39.881Z,0.83
2018-12-27T00:12:09.314Z,1.33
2018-12-27T00:14:38.707Z,1.00
2018-12-27T00:17:08.610Z,1.20
2018-12-27T00:19:37.927Z,1.37
2018-12-27T00:22:07.313Z,1.60
2018-12-27T00:24:36.715Z,1.57
2018-12-27T00:27:06.158Z,1.73
2018-12-27T00:29:35.476Z,1.50
2018-12-27T00:32:04.992Z,1.10
2018-12-27T00:34:34.472Z,1.10
2018-12-27T00:37:06.575Z,1.20
2018-12-27T00:39:36.050Z,1.13
2018-12-27T00:42:05.666Z,1.07
2018-12-27T00:44:35.125Z,1.10
2018-12-27T00:47:04.894Z,1.00
2018-12-27T00:49:34.420Z,1.73
2018-12-27T00:52:03.983Z,1.40
2018-12-27T00:54:33.507Z,2.13
2018-12-27T00:57:03.025Z,1.10
2018-12-27T00:59:32.561Z,1.30
2018-12-27T01:02:02.020Z,1.13
2018-12-27T01:04:31.557Z,1.10
2018-12-27T01:07:01.035Z,1.57
2018-12-27T01:09:30.525Z,1.33
2018-12-27T01:12:00.213Z,1.10
2018-12-27T01:14:29.692Z,1.40
2018-12-27T01:16:59.209Z,1.20
2018-12-27T01:19:28.721Z,1.67
2018-12-27T01:21:58.329Z,1.30
2018-12-27T01:24:27.794Z,1.50
2018-12-27T01:26:57.304Z,1.03
2018-12-27T01:29:26.776Z,0.97
2018-12-27T01:31:56.380Z,1.77
2018-12-27T01:34:25.903Z,1.27
2018-12-27T01:36:55.494Z,1.10
2018-12-27T01:39:25.066Z,0.90
2018-12-27T01:41:54.586Z,1.20
2018-12-27T01:44:24.086Z,1.03
2018-12-27T01:46:53.633Z,1.30
2018-12-27T01:49:23.131Z,1.20
2018-12-27T01:51:52.611Z,1.60
2018-12-27T01:54:22.137Z,1.03
2018-12-27T01:56:51.622Z,1.20
2018-12-27T01:59:21.164Z,1.27
2018-12-27T02:01:50.654Z,0.60
2018-12-27T02:04:20.151Z,1.27
2018-12-27T02:06:49.616Z,0.83
2018-12-27T02:09:19.130Z,1.20
2018-12-27T02:11:48.592Z,1.47
2018-12-27T02:14:18.130Z,1.77
2018-12-27T02:16:47.657Z,1.20
2018-12-27T02:19:17.240Z,1.17
2018-12-27T02:21:46.780Z,0.90
2018-12-27T02:24:16.266Z,1.47
2018-12-27T02:26:45.769Z,1.20
2018-12-27T02:29:15.242Z,1.07
2018-12-27T02:31:44.783Z,1.17
2018-12-27T02:34:14.310Z,1.87
2018-12-27T02:36:43.807Z,1.10
2018-12-27T02:39:13.350Z,1.83
2018-12-27T02:41:42.812Z,0.97
2018-12-27T02:44:12.306Z,1.33
2018-12-27T02:46:41.802Z,1.47
2018-12-27T02:49:11.384Z,0.80
2018-12-27T02:51:40.935Z,0.80
2018-12-27T02:54:10.442Z,1.10
2018-12-27T02:56:39.987Z,1.40
2018-12-27T02:59:09.586Z,1.10
2018-12-27T03:01:39.042Z,0.90
2018-12-27T03:04:08.603Z,0.80
2018-12-27T03:06:38.091Z,1.43
2018-12-27T03:09:07.669Z,1.73
2018-12-27T03:11:37.187Z,1.33
2018-12-27T03:14:06.736Z,1.63
2018-12-27T03:16:36.250Z,0.83
2018-12-27T03:19:05.728Z,1.00
2018-12-27T03:21:35.235Z,0.60
2018-12-27T03:24:04.723Z,1.33
2018-12-27T03:26:34.339Z,1.23
2018-12-27T03:29:03.884Z,0.80
2018-12-27T03:31:33.442Z,1.00
2018-12-27T03:34:03.913Z,1.17
2018-12-27T03:36:33.390Z,1.37
2018-12-27T03:39:02.994Z,0.77
2018-12-27T03:41:32.473Z,1.07
2018-12-27T03:44:02.946Z,1.30
2018-12-27T03:46:32.409Z,1.20
2018-12-27T03:49:02.357Z,1.07
2018-12-27T03:51:31.819Z,1.27
2018-12-27T03:54:01.997Z,0.50
2018-12-27T03:56:31.517Z,0.90
2018-12-27T03:59:03.305Z,1.40
2018-12-27T04:01:32.793Z,0.90
2018-12-27T04:04:02.329Z,1.20
2018-12-27T04:06:31.870Z,1.13
2018-12-27T04:09:02.506Z,0.80
2018-12-27T04:11:31.977Z,0.90
2018-12-27T04:14:01.466Z,1.13
2018-12-27T04:16:30.811Z,0.70
2018-12-27T04:19:00.200Z,0.67
2018-12-27T04:21:29.675Z,0.77
2018-12-27T04:23:59.018Z,1.27
2018-12-27T04:26:29.476Z,1.40
2018-12-27T04:28:58.791Z,1.67
2018-12-27T04:31:28.525Z,1.67
2018-12-27T04:33:58.243Z,1.17
2018-12-27T04:36:29.170Z,1.10
2018-12-27T04:38:58.525Z,1.00
2018-12-27T04:41:28.337Z,1.10
2018-12-27T04:43:58.397Z,1.17
2018-12-27T04:46:27.713Z,0.67
2018-12-27T04:48:57.140Z,0.60
2018-12-27T04:51:26.467Z,0.97
2018-12-27T04:53:55.845Z,0.50
2018-12-27T04:56:25.216Z,0.77
2018-12-27T04:58:54.706Z,0.50
2018-12-27T05:01:24.024Z,0.40
2018-12-27T05:03:53.353Z,0.80
2018-12-27T05:06:22.701Z,1.00
2018-12-27T05:08:52.021Z,0.80
2018-12-27T05:11:21.433Z,1.20
2018-12-27T05:13:50.779Z,0.97
2018-12-27T05:16:20.125Z,1.37
2018-12-27T05:18:49.436Z,0.70
2018-12-27T05:21:18.768Z,0.50
2018-12-27T05:23:48.110Z,1.00
2018-12-27T05:26:17.547Z,0.60
2018-12-27T05:28:46.990Z,0.67
2018-12-27T05:31:16.357Z,0.97
2018-12-27T05:33:45.798Z,0.73
2018-12-27T05:36:15.184Z,0.60
2018-12-27T05:38:44.594Z,0.83
2018-12-27T05:41:13.999Z,0.90
2018-12-27T05:43:43.421Z,0.80
2018-12-27T05:46:12.847Z,0.70
2018-12-27T05:48:42.228Z,0.80
2018-12-27T05:51:11.530Z,0.60
2018-12-27T05:53:40.883Z,0.60
2018-12-27T05:56:10.205Z,0.70
2018-12-27T05:58:39.585Z,0.60
2018-12-27T06:01:08.940Z,0.70
2018-12-27T06:03:38.264Z,0.70
2018-12-27T06:06:07.685Z,0.47
2018-12-27T06:08:36.998Z,0.50
2018-12-27T06:11:06.439Z,0.60
2018-12-27T06:13:35.739Z,0.70
2018-12-27T06:16:05.118Z,0.67
2018-12-27T06:18:34.441Z,1.47
2018-12-27T06:21:03.818Z,1.30
2018-12-27T06:23:33.258Z,1.00
2018-12-27T06:26:02.729Z,0.90
2018-12-27T06:28:32.120Z,1.43
2018-12-27T06:31:01.521Z,1.33
2018-12-27T06:33:30.863Z,1.27
2018-12-27T06:36:00.173Z,0.90
2018-12-27T06:38:29.525Z,1.43
2018-12-27T06:40:58.828Z,1.33
2018-12-27T06:43:28.153Z,0.60
2018-12-27T06:45:57.489Z,0.70
2018-12-27T06:48:26.798Z,1.03
2018-12-27T06:50:56.147Z,0.70
2018-12-27T06:53:25.465Z,0.70
2018-12-27T06:55:54.810Z,0.90
2018-12-27T06:58:24.103Z,0.70
2018-12-27T07:00:53.509Z,0.87
2018-12-27T07:03:22.813Z,0.70
2018-12-27T07:05:52.517Z,0.50
2018-12-27T07:08:25.148Z,0.80
2018-12-27T07:10:54.703Z,0.70
2018-12-27T07:13:24.307Z,0.67
2018-12-27T07:15:54.937Z,0.70
2018-12-27T07:18:24.531Z,0.50
2018-12-27T07:20:54.293Z,0.63
2018-12-27T07:23:23.781Z,0.60
2018-12-27T07:25:53.332Z,0.80
2018-12-27T07:28:26.027Z,0.70
2018-12-27T07:30:55.627Z,0.50
2018-12-27T07:33:25.231Z,0.80
2018-12-27T07:35:57.941Z,0.40
2018-12-27T07:38:27.674Z,0.40
2018-12-27T07:40:57.316Z,0.50
2018-12-27T07:43:27.051Z,0.50
2018-12-27T07:45:59.427Z,0.60
2018-12-27T07:48:32.046Z,0.47
2018-12-27T07:51:03.701Z,0.60
2018-12-27T07:53:33.337Z,0.93
2018-12-27T07:56:03.411Z,0.60
2018-12-27T07:58:33.097Z,0.50
2018-12-27T08:01:03.785Z,0.47
2018-12-27T08:03:33.412Z,1.20
2018-12-27T08:06:03.569Z,1.27
2018-12-27T08:08:33.173Z,1.00
2018-12-27T08:11:07.581Z,5.60
2018-12-27T08:13:37.270Z,5.50
2018-12-27T08:16:06.909Z,4.90
2018-12-27T08:18:36.533Z,2.20
2018-12-27T08:21:06.812Z,0.73
2018-12-27T08:23:36.504Z,0.83
2018-12-27T08:26:06.077Z,0.90
2018-12-27T08:28:35.802Z,0.60
2018-12-27T08:31:08.455Z,7.20
2018-12-27T08:33:38.086Z,6.63
2018-12-27T08:36:07.664Z,2.50
2018-12-27T08:38:37.246Z,2.43
2018-12-27T08:41:07.915Z,3.60
2018-12-27T08:43:37.510Z,0.57
2018-12-27T08:46:07.284Z,0.43
2018-12-27T08:48:39.320Z,2.00
2018-12-27T08:51:08.665Z,0.90
2018-12-27T08:53:38.276Z,1.90
2018-12-27T08:56:07.959Z,0.50
2018-12-27T08:58:37.703Z,1.20
2018-12-27T09:01:07.230Z,0.50
2018-12-27T09:03:36.957Z,0.67
2018-12-27T09:06:06.524Z,1.37
2018-12-27T09:08:36.106Z,1.07
2018-12-27T09:11:05.790Z,0.50
2018-12-27T09:13:35.723Z,1.20
2018-12-27T09:16:06.208Z,0.63
2018-12-27T09:18:37.246Z,0.80
2018-12-27T09:21:06.807Z,0.87
2018-12-27T09:23:36.410Z,0.77
2018-12-27T09:26:06.291Z,1.30
2018-12-27T09:28:36.093Z,0.50
2018-12-27T09:31:05.644Z,0.80
2018-12-27T09:33:38.364Z,0.87
2018-12-27T09:36:07.890Z,1.00
2018-12-27T09:38:38.503Z,0.80
2018-12-27T09:41:08.295Z,0.57
2018-12-27T09:43:37.895Z,0.80
2018-12-27T09:46:09.412Z,0.60
2018-12-27T09:48:38.950Z,0.40
2018-12-27T09:51:11.345Z,0.50
2018-12-27T09:53:40.854Z,0.50
2018-12-27T09:56:10.704Z,0.80
2018-12-27T09:58:43.182Z,0.60
2018-12-27T10:01:12.896Z,0.63
2018-12-27T10:03:43.060Z,0.50
2018-12-27T10:06:12.622Z,0.67
2018-12-27T10:08:42.290Z,0.70
2018-12-27T10:11:12.162Z,0.50
2018-12-27T10:13:42.940Z,0.40
2018-12-27T10:16:12.722Z,0.50
2018-12-27T10:18:42.327Z,0.50
2018-12-27T10:21:17.487Z,0.60
2018-12-27T10:23:46.370Z,0.63
2018-12-27T10:26:21.546Z,0.50
2018-12-27T10:28:51.263Z,0.50
2018-12-27T10:31:20.942Z,0.60
2018-12-27T10:33:50.586Z,0.70
2018-12-27T10:36:23.147Z,0.40
2018-12-27T10:38:53.357Z,1.13
2018-12-27T10:41:23.197Z,0.53
2018-12-27T10:43:52.973Z,0.40
2018-12-27T10:46:22.616Z,0.30
2018-12-27T10:48:52.276Z,0.47
2018-12-27T10:51:22.203Z,0.40
2018-12-27T10:53:52.465Z,0.40
2018-12-27T10:56:22.191Z,0.40
2018-12-27T10:58:51.878Z,0.40
2018-12-27T11:01:21.672Z,0.60
2018-12-27T11:03:51.372Z,0.30
2018-12-27T11:06:21.177Z,0.60
2018-12-27T11:08:53.191Z,0.40
2018-12-27T11:11:23.221Z,0.40
2018-12-27T11:13:52.879Z,0.60
2018-12-27T11:16:22.701Z,0.70
2018-12-27T11:18:52.377Z,0.73
2018-12-27T11:21:22.559Z,0.77
2018-12-27T11:23:53.889Z,1.37
2018-12-27T11:26:23.542Z,0.57
2018-12-27T11:28:53.192Z,0.40
2018-12-27T11:31:22.803Z,0.40
2018-12-27T11:33:53.130Z,0.40
2018-12-27T11:36:22.849Z,0.60
2018-12-27T11:38:52.697Z,0.43
2018-12-27T11:41:22.280Z,0.40
2018-12-27T11:43:52.165Z,0.30
2018-12-27T11:46:22.736Z,0.70
2018-12-27T11:48:53.559Z,0.70
2018-12-27T11:51:23.341Z,0.57
2018-12-27T11:53:53.100Z,0.50
2018-12-27T11:56:22.709Z,1.10
2018-12-27T11:58:55.068Z,0.43
2018-12-27T12:01:24.807Z,0.40
2018-12-27T12:03:59.545Z,0.60
2018-12-27T12:06:29.737Z,0.70
2018-12-27T12:08:59.811Z,0.57
2018-12-27T12:11:29.385Z,0.50
2018-12-27T12:13:59.051Z,0.60
2018-12-27T12:16:28.721Z,0.40
2018-12-27T12:18:58.853Z,0.50
2018-12-27T12:21:28.466Z,0.30
2018-12-27T12:23:58.129Z,0.50
2018-12-27T12:26:27.889Z,0.70
2018-12-27T12:28:57.456Z,0.50
2018-12-27T12:31:27.031Z,0.50
2018-12-27T12:33:57.675Z,0.60
2018-12-27T12:36:29.119Z,0.60
2018-12-27T12:38:59.703Z,0.40
2018-12-27T12:41:29.359Z,0.77
2018-12-27T12:43:59.060Z,0.50
2018-12-27T12:46:28.747Z,0.30
2018-12-27T12:48:58.515Z,0.40
2018-12-27T12:51:29.804Z,0.60
2018-12-27T12:53:59.374Z,0.50
2018-12-27T12:56:30.451Z,0.50
2018-12-27T12:59:00.064Z,1.00
2018-12-27T13:01:29.699Z,0.60
2018-12-27T13:03:59.745Z,0.53
2018-12-27T13:06:29.339Z,0.80
2018-12-27T13:08:58.911Z,0.97
2018-12-27T13:11:28.524Z,0.50
2018-12-27T13:13:58.127Z,0.53
2018-12-27T13:16:27.723Z,0.40
2018-12-27T13:18:57.226Z,0.70
2018-12-27T13:21:26.805Z,0.70
2018-12-27T13:23:56.415Z,0.90
2018-12-27T13:26:25.904Z,0.70
2018-12-27T13:28:55.503Z,0.47
2018-12-27T13:31:25.111Z,0.50
2018-12-27T13:33:54.670Z,0.70
2018-12-27T13:36:25.521Z,0.97
2018-12-27T13:38:55.317Z,0.37
2018-12-27T13:41:25.163Z,0.47
2018-12-27T13:43:54.747Z,0.63
2018-12-27T13:46:24.607Z,0.53
2018-12-27T13:48:54.261Z,0.60
2018-12-27T13:51:23.812Z,0.60
2018-12-27T13:53:53.375Z,0.60
2018-12-27T13:56:22.952Z,0.80
2018-12-27T13:58:52.563Z,0.43
2018-12-27T14:01:22.125Z,0.67
2018-12-27T14:03:51.758Z,0.50
2018-12-27T14:06:21.339Z,0.70
2018-12-27T14:08:50.900Z,0.83
2018-12-27T14:11:20.456Z,0.80
2018-12-27T14:13:50.009Z,0.97
2018-12-27T14:16:19.519Z,0.77
2018-12-27T14:18:49.118Z,0.80
2018-12-27T14:21:18.620Z,1.37
2018-12-27T14:23:48.256Z,0.90
2018-12-27T14:26:17.734Z,1.27
2018-12-27T14:28:47.414Z,0.60
2018-12-27T14:31:16.939Z,0.50
2018-12-27T14:33:46.525Z,0.73
2018-12-27T14:36:15.979Z,0.60
2018-12-27T14:38:46.418Z,0.50
2018-12-27T14:41:16.165Z,0.83
2018-12-27T14:43:45.664Z,0.60
2018-12-27T14:46:15.235Z,0.53
2018-12-27T14:48:44.731Z,0.60
2018-12-27T14:51:15.521Z,0.70
2018-12-27T14:53:51.433Z,0.50
2018-12-27T14:56:20.175Z,1.00
2018-12-27T14:58:54.685Z,0.60
2018-12-27T15:01:39.701Z,0.77
2018-12-27T15:04:12.291Z,0.37
2018-12-27T15:06:47.152Z,0.47
2018-12-27T15:12:05.159Z,2.50
2018-12-27T15:14:35.408Z,19.33
2018-12-27T15:17:06.139Z,35.83
2018-12-27T15:19:35.853Z,9.50
2018-12-27T15:22:07.913Z,2.43
2018-12-27T15:24:41.683Z,2.00
2018-12-27T15:27:11.916Z,0.80
2018-12-27T15:29:43.423Z,0.90
2018-12-27T15:32:15.693Z,0.60
2018-12-27T15:34:46.053Z,0.70
2018-12-27T15:37:21.235Z,1.03
2018-12-27T15:39:51.706Z,1.17
2018-12-27T15:42:25.690Z,0.83
2018-12-27T15:44:57.423Z,1.27
2018-12-27T15:47:30.254Z,0.60
2018-12-27T15:50:05.839Z,1.53
2018-12-27T15:52:35.769Z,1.20
2018-12-27T15:55:06.203Z,0.80
2018-12-27T15:57:37.267Z,0.70
2018-12-27T16:00:24.982Z,0.93
2018-12-27T16:03:00.581Z,0.90
2018-12-27T16:05:31.348Z,0.97
2018-12-27T16:08:05.770Z,1.30
2018-12-27T16:10:37.633Z,1.20
2018-12-27T16:13:09.323Z,1.10
2018-12-27T16:15:38.768Z,1.27
2018-12-27T16:18:09.110Z,1.50
2018-12-27T16:20:38.961Z,1.00
2018-12-27T16:23:09.158Z,1.17
2018-12-27T16:25:40.232Z,0.70
2018-12-27T16:28:11.994Z,0.73
2018-12-27T16:30:44.066Z,0.83
2018-12-27T16:33:13.864Z,0.73
2018-12-27T16:35:43.721Z,0.93
2018-12-27T16:38:16.482Z,0.50
2018-12-27T16:40:50.164Z,0.70
2018-12-27T16:43:19.107Z,0.70
2018-12-27T16:45:50.352Z,0.63
2018-12-27T16:48:22.961Z,0.77
2018-12-27T16:50:57.828Z,0.60
2018-12-27T16:53:28.500Z,0.93
2018-12-27T16:56:00.301Z,0.73
2018-12-27T16:58:31.062Z,0.67
2018-12-27T17:01:02.416Z,1.17
2018-12-27T17:03:33.560Z,0.70
2018-12-27T17:06:06.594Z,0.80
2018-12-27T17:08:38.434Z,1.63
2018-12-27T17:11:08.006Z,0.70
2018-12-27T17:13:37.762Z,1.00
2018-12-27T17:16:07.424Z,0.63
2018-12-27T17:18:37.346Z,0.70
2018-12-27T17:21:08.993Z,0.80
2018-12-27T17:23:38.852Z,1.63
2018-12-27T17:26:15.261Z,1.53
2018-12-27T17:31:36.322Z,1.33
2018-12-27T17:34:06.992Z,1.63
2018-12-27T17:36:37.612Z,1.87
2018-12-27T17:39:08.629Z,1.47
2018-12-27T17:41:39.500Z,1.67
2018-12-27T17:44:10.777Z,1.40
2018-12-27T17:46:40.770Z,1.53
2018-12-27T17:49:11.513Z,1.80
2018-12-27T17:51:41.445Z,1.43
2018-12-27T17:54:11.143Z,1.33
2018-12-27T17:56:42.362Z,1.43
2018-12-27T17:59:16.168Z,1.70
2018-12-27T18:01:46.106Z,1.33
2018-12-27T18:04:17.644Z,1.97
2018-12-27T18:06:47.200Z,1.37
2018-12-27T18:09:16.913Z,1.80
2018-12-27T18:11:49.036Z,1.17
2018-12-27T18:14:19.579Z,2.00
2018-12-27T18:16:49.313Z,1.20
2018-12-27T18:19:21.332Z,0.70
2018-12-27T18:21:50.985Z,1.00
2018-12-27T18:24:29.785Z,1.47
2018-12-27T18:27:00.402Z,1.37
2018-12-27T18:29:31.698Z,1.07
2018-12-27T18:32:07.913Z,1.07
2018-12-27T18:34:38.773Z,1.20
2018-12-27T18:37:08.339Z,1.60
2018-12-27T18:39:40.944Z,1.40
2018-12-27T18:42:10.433Z,0.97
2018-12-27T18:44:39.883Z,1.77
2018-12-27T18:47:09.363Z,2.00
2018-12-27T18:49:38.762Z,1.27
2018-12-27T18:52:08.259Z,1.83
2018-12-27T18:54:37.679Z,2.60
2018-12-27T18:57:07.172Z,1.40
2018-12-27T18:59:36.878Z,1.53
2018-12-27T19:02:06.449Z,1.57
2018-12-27T19:04:35.950Z,2.37
2018-12-27T19:07:05.299Z,0.93
2018-12-27T19:09:34.776Z,0.97
2018-12-27T19:12:39.778Z,1.97
2018-12-27T19:15:14.969Z,2.47
2018-12-27T19:17:55.782Z,3.13
2018-12-27T19:20:27.226Z,4.93
2018-12-27T19:23:10.384Z,1.70
2018-12-27T19:25:39.874Z,2.57
2018-12-27T19:28:09.368Z,2.80
2018-12-27T19:30:38.928Z,2.10
2018-12-27T19:33:08.381Z,2.90
2018-12-27T19:35:37.853Z,2.27
2018-12-27T19:38:07.291Z,3.20
2018-12-27T19:40:36.802Z,2.37
2018-12-27T19:43:06.291Z,2.17
2018-12-27T19:45:35.894Z,2.50
2018-12-27T19:48:05.346Z,1.17
2018-12-27T19:50:34.787Z,2.30
2018-12-27T19:53:05.720Z,3.33
2018-12-27T19:55:35.214Z,2.37
2018-12-27T19:58:04.682Z,2.33
2018-12-27T20:00:34.168Z,2.23
2018-12-27T20:03:03.506Z,1.27
2018-12-27T20:05:32.920Z,2.60
2018-12-27T20:08:03.697Z,2.40
2018-12-27T20:10:33.075Z,1.60
2018-12-27T20:13:08.224Z,2.43
2018-12-27T20:15:37.542Z,2.67
2018-12-27T20:18:06.962Z,1.80
2018-12-27T20:20:36.291Z,2.17
2018-12-27T20:23:05.770Z,2.57
2018-12-27T20:25:35.346Z,1.73
2018-12-27T20:28:04.810Z,2.87
2018-12-27T20:30:34.139Z,3.50
2018-12-27T20:33:03.551Z,1.47
2018-12-27T20:35:33.314Z,1.80
2018-12-27T20:38:07.183Z,1.47
2018-12-27T20:40:36.582Z,1.93
2018-12-27T20:43:05.971Z,1.40
2018-12-27T20:45:35.380Z,2.53
2018-12-27T20:48:04.717Z,1.93
2018-12-27T20:50:34.160Z,1.30
2018-12-27T20:53:03.548Z,1.17
2018-12-27T20:55:32.902Z,1.40
2018-12-27T20:58:02.235Z,1.30
2018-12-27T21:00:31.674Z,1.30
2018-12-27T21:03:00.989Z,1.27
2018-12-27T21:05:30.300Z,0.50
2018-12-27T21:07:59.722Z,1.47
2018-12-27T21:10:29.041Z,1.40
2018-12-27T21:12:58.481Z,1.23
2018-12-27T21:15:27.799Z,1.40
2018-12-27T21:17:57.161Z,3.40
2018-12-27T21:20:26.472Z,2.30
2018-12-27T21:22:55.917Z,1.90
2018-12-27T21:25:25.234Z,2.33
2018-12-27T21:27:54.651Z,2.37
2018-12-27T21:30:23.958Z,3.17
2018-12-27T21:32:53.322Z,3.00
2018-12-27T21:35:22.718Z,2.37
2018-12-27T21:37:52.193Z,3.03
2018-12-27T21:40:21.526Z,2.77
2018-12-27T21:42:51.426Z,2.67
2018-12-27T21:45:20.745Z,2.30
2018-12-27T21:47:50.066Z,3.30
2018-12-27T21:50:19.517Z,3.57
2018-12-27T21:52:48.830Z,3.93
2018-12-27T21:55:18.207Z,3.47
2018-12-27T21:57:47.621Z,2.97
2018-12-27T22:00:17.058Z,2.83
2018-12-27T22:02:46.490Z,2.40
2018-12-27T22:05:15.904Z,2.63
2018-12-27T22:07:45.242Z,2.43
2018-12-27T22:10:14.561Z,1.90
2018-12-27T22:12:43.994Z,3.07
2018-12-27T22:15:13.308Z,3.10
2018-12-27T22:17:42.650Z,2.67
2018-12-27T22:20:11.974Z,2.33
2018-12-27T22:22:41.322Z,1.40
2018-12-27T22:25:10.710Z,3.53
2018-12-27T22:27:40.134Z,1.80
2018-12-27T22:30:09.491Z,1.37
2018-12-27T22:32:38.821Z,1.40
2018-12-27T22:35:08.258Z,1.83
2018-12-27T22:37:37.630Z,2.10
2018-12-27T22:40:07.034Z,1.37
2018-12-27T22:42:37.210Z,1.20
2018-12-27T22:45:06.770Z,2.00
2018-12-27T22:47:36.129Z,1.43
2018-12-27T22:50:06.136Z,1.23
2018-12-27T22:52:35.585Z,1.27
2018-12-27T22:55:05.293Z,2.03
2018-12-27T22:57:34.649Z,1.87
2018-12-27T23:00:05.614Z,2.00
2018-12-27T23:02:35.022Z,3.27
2018-12-27T23:05:04.501Z,2.00
2018-12-27T23:07:33.858Z,3.60
2018-12-27T23:10:03.193Z,4.80
2018-12-27T23:12:32.641Z,1.53
2018-12-27T23:15:01.939Z,3.43
2018-12-27T23:17:31.308Z,2.97
2018-12-27T23:20:00.697Z,3.23
2018-12-27T23:22:30.135Z,3.27
2018-12-27T23:24:59.478Z,4.67
2018-12-27T23:27:28.798Z,1.93
2018-12-27T23:29:58.256Z,2.97
2018-12-27T23:32:27.629Z,3.23
2018-12-27T23:34:56.994Z,2.67
2018-12-27T23:37:26.324Z,4.73
2018-12-27T23:39:55.749Z,2.70
2018-12-27T23:42:25.061Z,3.00
2018-12-27T23:44:54.474Z,2.77
2018-12-27T23:47:23.803Z,5.03
2018-12-27T23:49:53.238Z,3.17
2018-12-27T23:52:22.553Z,1.30
2018-12-27T23:54:51.890Z,2.90
2018-12-27T23:57:21.229Z,1.73
2018-12-27T23:59:50.546Z,3.37
